Aérodrome :
LOGIN :

S'inscrire | Disclaimer

   EN    FR    IT 

 










Légende :    VFR   VFR Marginal   IFR   IFR Intensif   IFR Très Intensif
Visi : 
Plafond : 
>= 8 km
>= 3000ft
5 à 8 km
1000 à 3000 ft
1500m à 5 km
500 à 1000 ft
800 à 1500m
200 à 500 ft
< 800m
< 200 ft
Symboles :   Orages  Brouillard  Fortes neiges  Fortes précipitations  Vent > 20 kt
SIGMETs :   Divers  Orages  Givrage  Turbulence  Onde Orograph.  Cendres Volcan.







- Altitude de l'aérodrome : 485 ft
- Code IATA : QSA


LELL - Sabadell

DERNIER METAR :
  • 210800Z 06013G28KT 010V120 9999 FEW030 17/07 Q1013

METARs EXPIRÉS :
  • 210730Z 05010KT 010V090 CAVOK 17/07 Q1012
  • 210700Z 05003KT 340V130 CAVOK 16/07 Q1012
  • 210630Z 03003KT 320V080 CAVOK 15/07 Q1013
  • 210600Z AUTO 02004KT 320V060 CAVOK 15/07 Q1013
  • 210530Z AUTO 05007KT 360V120 9999 SCT070 15/06 Q1013

TAF AMD TAF LELL
Valide du 21 à 06h jusqu'au 22 à 03h UTC


210658Z 2106/2203 03008KT 9999 FEW030 TX20/2113Z TN12/2106Z
BECMG 2107/2109 04015KT
TEMPO 2107/2203 04020G30KT
Pas de NOTAMs connus pour ce terrain.
1 SIGMET publié pour la FIR Barcelona (LECB) :
 
Turbulence forte
LECB SIGMET 2 VALID 210700/211000 LEVA
LECB BARCELONA UIR SEV TURB FCST WI N3844 W00021 - N4119 E00249 - N4137 E00234 - N4222 E00319 - N4151 E00424 - N3824 E00009 - N3844 W00021 FL270/310 MOV N NC=



MET'MAP, la Météo Aéronautique d'un coup d'oeil ! - Copyright ORBIFLY Décembre 2007 - Disclaimer

ORBIFLY MET'MAP TEAM :

Programmation & Développement : Alexandra Zaïnal
Conception & Développement : Baudouin d'Aumeries
Co-Programmation & Développement : Marc-Olivier Méhu
Soutien technique & logistique : Manuel Goepfert

Contact : metmap@orbifly.com




SOURCES & CREDITS :

   NOAA